sensor_id;sensor_type;location;lat;lon;timestamp;pressure;altitude;pressure_sealevel;temperature;humidity
53041;BME280;39326;42.650;23.248;2023-07-29T00:00:39;92497.91;;;18.33;50.71
53041;BME280;39326;42.650;23.248;2023-07-29T00:03:05;92502.88;;;18.35;50.88
53041;BME280;39326;42.650;23.248;2023-07-29T00:05:30;92501.91;;;18.29;50.68
53041;BME280;39326;42.650;23.248;2023-07-29T00:07:56;92508.19;;;18.26;50.79
53041;BME280;39326;42.650;23.248;2023-07-29T00:10:21;92501.91;;;18.16;51.49
53041;BME280;39326;42.650;23.248;2023-07-29T00:12:47;92503.41;;;18.17;51.40
53041;BME280;39326;42.650;23.248;2023-07-29T00:15:12;92503.84;;;18.16;51.27
53041;BME280;39326;42.650;23.248;2023-07-29T00:17:38;92499.72;;;18.11;51.65
53041;BME280;39326;42.650;23.248;2023-07-29T00:20:04;92500.59;;;18.08;51.70
53041;BME280;39326;42.650;23.248;2023-07-29T00:22:30;92499.09;;;18.07;51.60
53041;BME280;39326;42.650;23.248;2023-07-29T00:24:55;92496.94;;;18.02;52.20
53041;BME280;39326;42.650;23.248;2023-07-29T00:27:22;92496.72;;;17.96;52.04
53041;BME280;39326;42.650;23.248;2023-07-29T00:29:48;92494.44;;;17.95;52.11
53041;BME280;39326;42.650;23.248;2023-07-29T00:32:13;92492.94;;;17.94;52.17
53041;BME280;39326;42.650;23.248;2023-07-29T00:34:38;92486.44;;;17.91;52.05
53041;BME280;39326;42.650;23.248;2023-07-29T00:37:04;92478.34;;;17.91;52.29
53041;BME280;39326;42.650;23.248;2023-07-29T00:39:31;92488.81;;;17.89;52.55
53041;BME280;39326;42.650;23.248;2023-07-29T00:41:56;92486.88;;;17.90;52.49
53041;BME280;39326;42.650;23.248;2023-07-29T00:44:22;92490.00;;;17.88;52.61
53041;BME280;39326;42.650;23.248;2023-07-29T00:46:52;92486.22;;;17.85;52.64
53041;BME280;39326;42.650;23.248;2023-07-29T00:49:19;92477.91;;;17.80;52.79
53041;BME280;39326;42.650;23.248;2023-07-29T00:51:46;92483.53;;;17.85;52.73
53041;BME280;39326;42.650;23.248;2023-07-29T00:54:11;92478.66;;;17.80;53.27
53041;BME280;39326;42.650;23.248;2023-07-29T00:56:37;92482.88;;;17.81;53.23
53041;BME280;39326;42.650;23.248;2023-07-29T00:59:03;92481.03;;;17.78;53.30
53041;BME280;39326;42.650;23.248;2023-07-29T01:01:30;92481.44;;;17.77;53.26
53041;BME280;39326;42.650;23.248;2023-07-29T01:03:56;92480.28;;;17.78;53.55
53041;BME280;39326;42.650;23.248;2023-07-29T01:06:49;92472.94;;;17.78;53.88
53041;BME280;39326;42.650;23.248;2023-07-29T01:09:33;92467.50;;;17.66;53.96
53041;BME280;39326;42.650;23.248;2023-07-29T01:12:16;92479.72;;;17.70;53.95
53041;BME280;39326;42.650;23.248;2023-07-29T01:15:03;92476.03;;;17.64;54.09
53041;BME280;39326;42.650;23.248;2023-07-29T01:17:54;92476.22;;;17.57;54.65
53041;BME280;39326;42.650;23.248;2023-07-29T01:20:20;92479.34;;;17.55;54.24
53041;BME280;39326;42.650;23.248;2023-07-29T01:22:49;92479.78;;;17.54;54.40
53041;BME280;39326;42.650;23.248;2023-07-29T01:25:14;92473.94;;;17.55;54.53
53041;BME280;39326;42.650;23.248;2023-07-29T01:27:42;92470.16;;;17.53;54.46
53041;BME280;39326;42.650;23.248;2023-07-29T01:30:08;92477.19;;;17.50;54.55
53041;BME280;39326;42.650;23.248;2023-07-29T01:35:33;92476.97;;;17.45;55.12
53041;BME280;39326;42.650;23.248;2023-07-29T01:38:05;92477.47;;;17.40;55.20
53041;BME280;39326;42.650;23.248;2023-07-29T01:40:33;92480.06;;;17.43;54.90
53041;BME280;39326;42.650;23.248;2023-07-29T01:42:59;92471.75;;;17.38;54.94
53041;BME280;39326;42.650;23.248;2023-07-29T01:45:25;92474.88;;;17.36;55.15
53041;BME280;39326;42.650;23.248;2023-07-29T01:47:51;92469.06;;;17.38;55.24
53041;BME280;39326;42.650;23.248;2023-07-29T01:50:17;92475.28;;;17.34;55.24
53041;BME280;39326;42.650;23.248;2023-07-29T01:52:42;92475.41;;;17.31;55.21
53041;BME280;39326;42.650;23.248;2023-07-29T01:55:08;92473.78;;;17.33;55.07
53041;BME280;39326;42.650;23.248;2023-07-29T01:57:33;92470.44;;;17.29;55.25
53041;BME280;39326;42.650;23.248;2023-07-29T01:59:58;92472.28;;;17.32;55.33
53041;BME280;39326;42.650;23.248;2023-07-29T02:02:24;92474.31;;;17.28;55.50
53041;BME280;39326;42.650;23.248;2023-07-29T02:04:49;92463.22;;;17.26;55.49
53041;BME280;39326;42.650;23.248;2023-07-29T02:07:17;92471.63;;;17.28;55.75
53041;BME280;39326;42.650;23.248;2023-07-29T02:09:44;92467.41;;;17.27;55.70
53041;BME280;39326;42.650;23.248;2023-07-29T02:12:09;92468.06;;;17.31;55.47
53041;BME280;39326;42.650;23.248;2023-07-29T02:14:35;92466.66;;;17.27;55.85
53041;BME280;39326;42.650;23.248;2023-07-29T02:17:00;92474.31;;;17.28;55.77
53041;BME280;39326;42.650;23.248;2023-07-29T02:19:25;92470.09;;;17.27;55.75
53041;BME280;39326;42.650;23.248;2023-07-29T02:21:51;92475.94;;;17.26;56.01
53041;BME280;39326;42.650;23.248;2023-07-29T02:24:16;92472.88;;;17.24;55.92
53041;BME280;39326;42.650;23.248;2023-07-29T02:26:41;92477.63;;;17.20;55.90
53041;BME280;39326;42.650;23.248;2023-07-29T02:29:07;92469.63;;;17.16;56.01
53041;BME280;39326;42.650;23.248;2023-07-29T02:31:32;92475.69;;;17.20;55.86
53041;BME280;39326;42.650;23.248;2023-07-29T02:33:59;92482.28;;;17.19;56.49
53041;BME280;39326;42.650;23.248;2023-07-29T02:36:25;92473.00;;;17.20;56.34
53041;BME280;39326;42.650;23.248;2023-07-29T02:38:50;92475.69;;;17.20;56.58
53041;BME280;39326;42.650;23.248;2023-07-29T02:41:16;92470.38;;;17.17;56.78
53041;BME280;39326;42.650;23.248;2023-07-29T02:43:42;92474.94;;;17.20;56.97
53041;BME280;39326;42.650;23.248;2023-07-29T02:46:08;92470.81;;;17.15;57.12
53041;BME280;39326;42.650;23.248;2023-07-29T02:48:33;92476.72;;;17.10;57.61
53041;BME280;39326;42.650;23.248;2023-07-29T02:50:59;92484.31;;;16.99;58.14
53041;BME280;39326;42.650;23.248;2023-07-29T02:53:25;92480.13;;;16.98;57.99
53041;BME280;39326;42.650;23.248;2023-07-29T02:55:50;92473.66;;;16.95;58.08
53041;BME280;39326;42.650;23.248;2023-07-29T02:58:16;92475.34;;;16.89;58.22
53041;BME280;39326;42.650;23.248;2023-07-29T03:00:41;92486.13;;;16.89;58.60
53041;BME280;39326;42.650;23.248;2023-07-29T03:03:08;92489.72;;;16.83;58.77
53041;BME280;39326;42.650;23.248;2023-07-29T03:05:34;92485.94;;;16.80;58.73
53041;BME280;39326;42.650;23.248;2023-07-29T03:08:00;92495.19;;;16.79;58.82
53041;BME280;39326;42.650;23.248;2023-07-29T03:10:25;92490.66;;;16.76;58.49
53041;BME280;39326;42.650;23.248;2023-07-29T03:12:50;92490.31;;;16.74;58.65
53041;BME280;39326;42.650;23.248;2023-07-29T03:15:16;92495.38;;;16.72;58.81
53041;BME280;39326;42.650;23.248;2023-07-29T03:17:42;92489.31;;;16.68;58.92
53041;BME280;39326;42.650;23.248;2023-07-29T03:20:07;92494.38;;;16.66;58.71
53041;BME280;39326;42.650;23.248;2023-07-29T03:22:33;92495.13;;;16.66;59.39
53041;BME280;39326;42.650;23.248;2023-07-29T03:24:58;92502.78;;;16.68;59.29
53041;BME280;39326;42.650;23.248;2023-07-29T03:27:24;92494.69;;;16.68;59.29
53041;BME280;39326;42.650;23.248;2023-07-29T03:29:49;92490.50;;;16.67;59.37
53041;BME280;39326;42.650;23.248;2023-07-29T03:32:15;92495.63;;;16.61;59.47
53041;BME280;39326;42.650;23.248;2023-07-29T03:34:40;92496.06;;;16.60;59.56
53041;BME280;39326;42.650;23.248;2023-07-29T03:37:05;92494.88;;;16.61;59.55
53041;BME280;39326;42.650;23.248;2023-07-29T03:39:31;92491.78;;;16.62;59.84
53041;BME280;39326;42.650;23.248;2023-07-29T03:41:57;92490.59;;;16.63;59.77
53041;BME280;39326;42.650;23.248;2023-07-29T03:44:23;92489.31;;;16.68;59.86
53041;BME280;39326;42.650;23.248;2023-07-29T03:46:48;92486.09;;;16.73;59.73
53041;BME280;39326;42.650;23.248;2023-07-29T03:49:14;92489.47;;;16.77;59.78
53041;BME280;39326;42.650;23.248;2023-07-29T03:51:39;92494.44;;;16.78;59.90
53041;BME280;39326;42.650;23.248;2023-07-29T03:54:05;92486.28;;;16.82;59.75
53041;BME280;39326;42.650;23.248;2023-07-29T03:56:30;92487.47;;;16.81;59.95
53041;BME280;39326;42.650;23.248;2023-07-29T03:59:03;92484.22;;;16.86;60.60
53041;BME280;39326;42.650;23.248;2023-07-29T04:01:28;92486.13;;;16.89;60.48
53041;BME280;39326;42.650;23.248;2023-07-29T04:03:54;92499.09;;;16.94;60.78
53041;BME280;39326;42.650;23.248;2023-07-29T04:06:20;92500.59;;;16.95;60.78
53041;BME280;39326;42.650;23.248;2023-07-29T04:08:45;92501.91;;;17.03;60.34
53041;BME280;39326;42.650;23.248;2023-07-29T04:11:11;92497.19;;;17.08;60.39
53041;BME280;39326;42.650;23.248;2023-07-29T04:13:36;92500.97;;;17.10;60.28
53041;BME280;39326;42.650;23.248;2023-07-29T04:16:04;92486.66;;;17.13;60.39
53041;BME280;39326;42.650;23.248;2023-07-29T04:18:29;92498.84;;;17.18;60.51
53041;BME280;39326;42.650;23.248;2023-07-29T04:20:54;92495.75;;;17.19;60.82
53041;BME280;39326;42.650;23.248;2023-07-29T04:23:20;92495.31;;;17.21;60.97
53041;BME280;39326;42.650;23.248;2023-07-29T04:25:45;92492.94;;;17.23;61.10
53041;BME280;39326;42.650;23.248;2023-07-29T04:28:11;92495.97;;;17.25;61.61
53041;BME280;39326;42.650;23.248;2023-07-29T04:30:36;92494.38;;;17.27;61.45
53041;BME280;39326;42.650;23.248;2023-07-29T04:33:02;92506.34;;;17.26;61.83
53041;BME280;39326;42.650;23.248;2023-07-29T04:35:27;92507.75;;;17.31;61.68
53041;BME280;39326;42.650;23.248;2023-07-29T04:37:52;92505.28;;;17.37;61.74
53041;BME280;39326;42.650;23.248;2023-07-29T04:40:18;92511.34;;;17.41;61.76
53041;BME280;39326;42.650;23.248;2023-07-29T04:42:43;92503.56;;;17.43;61.62
53041;BME280;39326;42.650;23.248;2023-07-29T04:45:09;92505.94;;;17.41;61.94
53041;BME280;39326;42.650;23.248;2023-07-29T04:47:34;92507.59;;;17.51;61.52
53041;BME280;39326;42.650;23.248;2023-07-29T04:49:59;92507.84;;;17.56;61.05
53041;BME280;39326;42.650;23.248;2023-07-29T04:52:25;92508.59;;;17.57;61.15
53041;BME280;39326;42.650;23.248;2023-07-29T04:54:50;92511.31;;;17.70;60.75
53041;BME280;39326;42.650;23.248;2023-07-29T04:57:16;92512.97;;;17.80;60.87
53041;BME280;39326;42.650;23.248;2023-07-29T04:59:41;92522.41;;;17.88;60.47
53041;BME280;39326;42.650;23.248;2023-07-29T05:02:06;92519.50;;;17.95;60.75
53041;BME280;39326;42.650;23.248;2023-07-29T05:04:32;92516.16;;;18.04;60.58
53041;BME280;39326;42.650;23.248;2023-07-29T05:06:57;92532.56;;;18.09;60.33
53041;BME280;39326;42.650;23.248;2023-07-29T05:09:23;92529.22;;;18.18;60.29
53041;BME280;39326;42.650;23.248;2023-07-29T05:11:49;92530.53;;;18.26;59.95
53041;BME280;39326;42.650;23.248;2023-07-29T05:14:16;92534.97;;;18.33;60.31
53041;BME280;39326;42.650;23.248;2023-07-29T05:16:42;92540.91;;;18.40;59.86
53041;BME280;39326;42.650;23.248;2023-07-29T05:19:07;92540.38;;;18.46;59.65
53041;BME280;39326;42.650;23.248;2023-07-29T05:21:33;92541.22;;;18.55;59.36
53041;BME280;39326;42.650;23.248;2023-07-29T05:23:58;92550.97;;;18.65;58.56
53041;BME280;39326;42.650;23.248;2023-07-29T05:26:24;92538.28;;;18.75;58.49
53041;BME280;39326;42.650;23.248;2023-07-29T05:28:49;92549.22;;;18.84;58.30
53041;BME280;39326;42.650;23.248;2023-07-29T05:31:15;92543.13;;;18.93;58.19
53041;BME280;39326;42.650;23.248;2023-07-29T05:33:40;92543.38;;;18.73;58.98
53041;BME280;39326;42.650;23.248;2023-07-29T05:36:06;92545.97;;;18.64;59.37
53041;BME280;39326;42.650;23.248;2023-07-29T05:38:31;92553.13;;;18.83;58.33
53041;BME280;39326;42.650;23.248;2023-07-29T05:40:57;92546.06;;;18.86;58.44
53041;BME280;39326;42.650;23.248;2023-07-29T05:43:24;92549.16;;;19.10;57.58
53041;BME280;39326;42.650;23.248;2023-07-29T05:45:49;92551.59;;;19.30;56.96
53041;BME280;39326;42.650;23.248;2023-07-29T05:48:15;92551.09;;;19.44;57.05
53041;BME280;39326;42.650;23.248;2023-07-29T05:50:41;92551.00;;;19.47;57.06
53041;BME280;39326;42.650;23.248;2023-07-29T05:53:06;92546.88;;;19.56;56.86
53041;BME280;39326;42.650;23.248;2023-07-29T05:55:32;92552.47;;;19.61;57.06
53041;BME280;39326;42.650;23.248;2023-07-29T05:57:57;92554.94;;;19.68;56.46
53041;BME280;39326;42.650;23.248;2023-07-29T06:00:23;92559.16;;;19.69;56.58
53041;BME280;39326;42.650;23.248;2023-07-29T06:02:48;92555.38;;;19.89;55.90
53041;BME280;39326;42.650;23.248;2023-07-29T06:05:14;92559.38;;;20.06;55.26
53041;BME280;39326;42.650;23.248;2023-07-29T06:07:39;92553.03;;;20.22;55.04
53041;BME280;39326;42.650;23.248;2023-07-29T06:10:09;92554.59;;;20.32;54.32
53041;BME280;39326;42.650;23.248;2023-07-29T06:12:37;92555.28;;;20.45;54.35
53041;BME280;39326;42.650;23.248;2023-07-29T06:15:02;92548.69;;;20.55;53.91
53041;BME280;39326;42.650;23.248;2023-07-29T06:17:28;92549.84;;;20.45;54.30
53041;BME280;39326;42.650;23.248;2023-07-29T06:19:53;92540.84;;;20.58;53.98
53041;BME280;39326;42.650;23.248;2023-07-29T06:22:19;92544.06;;;20.65;53.80
53041;BME280;39326;42.650;23.248;2023-07-29T06:24:45;92538.81;;;20.80;53.48
53041;BME280;39326;42.650;23.248;2023-07-29T06:27:10;92540.22;;;20.94;53.05
53041;BME280;39326;42.650;23.248;2023-07-29T06:29:35;92533.59;;;21.04;52.96
53041;BME280;39326;42.650;23.248;2023-07-29T06:32:01;92537.72;;;21.18;52.66
53041;BME280;39326;42.650;23.248;2023-07-29T06:34:26;92536.38;;;21.31;51.65
53041;BME280;39326;42.650;23.248;2023-07-29T06:36:51;92535.78;;;21.37;51.38
53041;BME280;39326;42.650;23.248;2023-07-29T06:39:17;92536.06;;;21.39;51.23
53041;BME280;39326;42.650;23.248;2023-07-29T06:41:42;92530.50;;;21.33;50.73
53041;BME280;39326;42.650;23.248;2023-07-29T06:44:08;92533.38;;;21.39;50.85
53041;BME280;39326;42.650;23.248;2023-07-29T06:46:33;92529.75;;;21.42;50.79
53041;BME280;39326;42.650;23.248;2023-07-29T06:48:58;92522.69;;;21.53;50.65
53041;BME280;39326;42.650;23.248;2023-07-29T06:51:24;92535.19;;;21.60;50.18
53041;BME280;39326;42.650;23.248;2023-07-29T06:53:49;92530.81;;;21.62;49.76
53041;BME280;39326;42.650;23.248;2023-07-29T06:56:15;92536.69;;;21.79;48.92
53041;BME280;39326;42.650;23.248;2023-07-29T06:58:40;92538.19;;;21.99;48.49
53041;BME280;39326;42.650;23.248;2023-07-29T07:01:05;92543.44;;;22.11;48.04
53041;BME280;39326;42.650;23.248;2023-07-29T07:03:31;92533.91;;;22.25;48.17
53041;BME280;39326;42.650;23.248;2023-07-29T07:05:56;92544.78;;;22.25;47.93
53041;BME280;39326;42.650;23.248;2023-07-29T07:08:22;92542.63;;;22.38;47.24
53041;BME280;39326;42.650;23.248;2023-07-29T07:10:48;92539.28;;;22.43;47.28
53041;BME280;39326;42.650;23.248;2023-07-29T07:13:13;92535.78;;;22.61;46.99
53041;BME280;39326;42.650;23.248;2023-07-29T07:15:38;92540.41;;;22.70;46.80
53041;BME280;39326;42.650;23.248;2023-07-29T07:18:04;92535.19;;;22.90;45.56
53041;BME280;39326;42.650;23.248;2023-07-29T07:20:29;92540.94;;;22.83;46.40
53041;BME280;39326;42.650;23.248;2023-07-29T07:22:55;92538.19;;;22.59;46.52
53041;BME280;39326;42.650;23.248;2023-07-29T07:25:21;92538.06;;;22.54;45.51
53041;BME280;39326;42.650;23.248;2023-07-29T07:27:47;92539.56;;;22.55;46.52
53041;BME280;39326;42.650;23.248;2023-07-29T07:30:12;92537.56;;;22.98;46.18
53041;BME280;39326;42.650;23.248;2023-07-29T07:32:38;92525.47;;;22.99;44.82
53041;BME280;39326;42.650;23.248;2023-07-29T07:35:03;92532.47;;;23.14;45.02
53041;BME280;39326;42.650;23.248;2023-07-29T07:37:29;92534.06;;;23.30;44.80
53041;BME280;39326;42.650;23.248;2023-07-29T07:39:54;92527.19;;;23.59;44.60
53041;BME280;39326;42.650;23.248;2023-07-29T07:42:20;92535.78;;;23.81;43.85
53041;BME280;39326;42.650;23.248;2023-07-29T07:44:45;92529.81;;;24.07;43.04
53041;BME280;39326;42.650;23.248;2023-07-29T07:47:11;92526.72;;;24.28;42.48
53041;BME280;39326;42.650;23.248;2023-07-29T07:49:36;92534.25;;;24.48;42.59
53041;BME280;39326;42.650;23.248;2023-07-29T07:52:02;92530.22;;;24.29;41.38
53041;BME280;39326;42.650;23.248;2023-07-29T07:54:27;92533.19;;;24.46;41.15
53041;BME280;39326;42.650;23.248;2023-07-29T07:56:52;92536.50;;;24.50;40.81
53041;BME280;39326;42.650;23.248;2023-07-29T07:59:18;92530.50;;;24.61;40.60
53041;BME280;39326;42.650;23.248;2023-07-29T08:01:43;92534.41;;;24.74;40.63
53041;BME280;39326;42.650;23.248;2023-07-29T08:04:09;92534.75;;;24.82;41.01
53041;BME280;39326;42.650;23.248;2023-07-29T08:06:34;92526.44;;;24.91;40.65
53041;BME280;39326;42.650;23.248;2023-07-29T08:09:00;92530.31;;;25.20;39.63
53041;BME280;39326;42.650;23.248;2023-07-29T08:11:26;92539.00;;;25.18;39.54
53041;BME280;39326;42.650;23.248;2023-07-29T08:13:51;92535.13;;;24.90;39.89
53041;BME280;39326;42.650;23.248;2023-07-29T08:16:18;92521.47;;;24.90;39.31
53041;BME280;39326;42.650;23.248;2023-07-29T08:18:43;92539.50;;;25.02;39.94
53041;BME280;39326;42.650;23.248;2023-07-29T08:21:09;92544.28;;;25.42;39.40
53041;BME280;39326;42.650;23.248;2023-07-29T08:23:35;92542.50;;;25.59;38.60
53041;BME280;39326;42.650;23.248;2023-07-29T08:26:05;92540.22;;;25.17;38.72
53041;BME280;39326;42.650;23.248;2023-07-29T08:28:33;92550.56;;;25.28;39.28
53041;BME280;39326;42.650;23.248;2023-07-29T08:30:59;92541.63;;;25.68;39.08
53041;BME280;39326;42.650;23.248;2023-07-29T08:33:25;92538.78;;;25.83;38.04
53041;BME280;39326;42.650;23.248;2023-07-29T08:35:51;92532.25;;;25.95;38.09
53041;BME280;39326;42.650;23.248;2023-07-29T08:38:16;92542.47;;;26.26;37.21
53041;BME280;39326;42.650;23.248;2023-07-29T08:40:49;92535.47;;;26.20;37.66
53041;BME280;39326;42.650;23.248;2023-07-29T08:43:19;92543.53;;;26.60;37.04
53041;BME280;39326;42.650;23.248;2023-07-29T08:45:45;92532.16;;;26.67;37.06
53041;BME280;39326;42.650;23.248;2023-07-29T08:48:12;92528.78;;;26.84;35.26
53041;BME280;39326;42.650;23.248;2023-07-29T08:50:41;92522.13;;;26.96;35.68
53041;BME280;39326;42.650;23.248;2023-07-29T08:53:10;92527.44;;;27.11;35.50
53041;BME280;39326;42.650;23.248;2023-07-29T08:55:35;92519.59;;;27.30;35.34
53041;BME280;39326;42.650;23.248;2023-07-29T08:58:01;92523.69;;;27.45;33.68
53041;BME280;39326;42.650;23.248;2023-07-29T09:00:28;92522.47;;;27.58;33.57
53041;BME280;39326;42.650;23.248;2023-07-29T09:02:53;92527.84;;;27.89;32.99
53041;BME280;39326;42.650;23.248;2023-07-29T09:05:21;92521.47;;;27.55;31.93
53041;BME280;39326;42.650;23.248;2023-07-29T09:07:48;92522.69;;;27.43;32.68
53041;BME280;39326;42.650;23.248;2023-07-29T09:10:14;92523.38;;;27.32;32.66
53041;BME280;39326;42.650;23.248;2023-07-29T09:12:40;92522.31;;;26.81;31.45
53041;BME280;39326;42.650;23.248;2023-07-29T09:15:06;92517.53;;;27.13;32.45
53041;BME280;39326;42.650;23.248;2023-07-29T09:17:35;92500.75;;;27.43;32.84
53041;BME280;39326;42.650;23.248;2023-07-29T09:20:00;92501.53;;;27.55;32.37
53041;BME280;39326;42.650;23.248;2023-07-29T09:22:27;92507.41;;;27.90;32.27
53041;BME280;39326;42.650;23.248;2023-07-29T09:24:52;92508.53;;;27.61;32.18
53041;BME280;39326;42.650;23.248;2023-07-29T09:27:28;92505.19;;;28.00;31.25
53041;BME280;39326;42.650;23.248;2023-07-29T09:29:57;92510.44;;;28.20;31.46
53041;BME280;39326;42.650;23.248;2023-07-29T09:32:24;92500.22;;;28.26;31.37
53041;BME280;39326;42.650;23.248;2023-07-29T09:34:50;92507.44;;;28.07;31.25
53041;BME280;39326;42.650;23.248;2023-07-29T09:37:22;92503.44;;;27.97;30.75
53041;BME280;39326;42.650;23.248;2023-07-29T09:39:48;92501.22;;;28.12;31.75
53041;BME280;39326;42.650;23.248;2023-07-29T09:42:18;92501.97;;;28.24;31.70
53041;BME280;39326;42.650;23.248;2023-07-29T09:44:44;92502.53;;;28.56;31.28
53041;BME280;39326;42.650;23.248;2023-07-29T09:47:19;92495.75;;;28.96;30.42
53041;BME280;39326;42.650;23.248;2023-07-29T09:49:44;92492.72;;;29.11;29.98
53041;BME280;39326;42.650;23.248;2023-07-29T09:52:10;92491.25;;;28.99;29.78
53041;BME280;39326;42.650;23.248;2023-07-29T09:54:36;92487.16;;;29.39;29.50
53041;BME280;39326;42.650;23.248;2023-07-29T09:57:02;92489.44;;;29.18;28.50
53041;BME280;39326;42.650;23.248;2023-07-29T09:59:28;92489.44;;;29.18;29.92
53041;BME280;39326;42.650;23.248;2023-07-29T10:01:54;92489.09;;;29.50;29.64
53041;BME280;39326;42.650;23.248;2023-07-29T10:04:19;92478.41;;;29.46;28.89
53041;BME280;39326;42.650;23.248;2023-07-29T10:06:45;92479.13;;;29.47;29.08
53041;BME280;39326;42.650;23.248;2023-07-29T10:09:11;92479.03;;;29.69;28.43
53041;BME280;39326;42.650;23.248;2023-07-29T10:11:39;92472.28;;;29.70;28.12
53041;BME280;39326;42.650;23.248;2023-07-29T10:14:04;92467.94;;;29.86;26.93
53041;BME280;39326;42.650;23.248;2023-07-29T10:16:30;92466.09;;;30.05;27.57
53041;BME280;39326;42.650;23.248;2023-07-29T10:18:56;92473.06;;;30.12;28.45
53041;BME280;39326;42.650;23.248;2023-07-29T10:21:22;92465.47;;;29.82;29.08
53041;BME280;39326;42.650;23.248;2023-07-29T10:23:49;92462.47;;;29.80;28.89
53041;BME280;39326;42.650;23.248;2023-07-29T10:26:19;92456.94;;;29.86;28.35
53041;BME280;39326;42.650;23.248;2023-07-29T10:28:47;92452.72;;;29.79;28.28
53041;BME280;39326;42.650;23.248;2023-07-29T10:31:16;92456.06;;;30.13;27.69
53041;BME280;39326;42.650;23.248;2023-07-29T10:33:43;92448.25;;;30.18;27.20
53041;BME280;39326;42.650;23.248;2023-07-29T10:36:09;92447.47;;;30.53;27.29
53041;BME280;39326;42.650;23.248;2023-07-29T10:38:35;92442.88;;;30.31;27.23
53041;BME280;39326;42.650;23.248;2023-07-29T10:41:01;92440.13;;;30.66;26.35
53041;BME280;39326;42.650;23.248;2023-07-29T10:43:35;92447.22;;;30.81;26.33
53041;BME280;39326;42.650;23.248;2023-07-29T10:46:18;92439.03;;;31.24;26.00
53041;BME280;39326;42.650;23.248;2023-07-29T10:48:54;92436.38;;;31.37;24.70
53041;BME280;39326;42.650;23.248;2023-07-29T10:51:30;92434.34;;;30.70;25.12
53041;BME280;39326;42.650;23.248;2023-07-29T10:54:03;92421.06;;;30.93;26.63
53041;BME280;39326;42.650;23.248;2023-07-29T10:56:33;92429.72;;;31.08;25.89
53041;BME280;39326;42.650;23.248;2023-07-29T11:01:53;92421.75;;;30.99;25.53
53041;BME280;39326;42.650;23.248;2023-07-29T11:12:48;92423.72;;;32.04;23.83
53041;BME280;39326;42.650;23.248;2023-07-29T11:15:28;92422.16;;;32.09;23.69
53041;BME280;39326;42.650;23.248;2023-07-29T11:17:59;92421.88;;;31.74;23.81
53041;BME280;39326;42.650;23.248;2023-07-29T11:20:31;92425.88;;;32.11;24.14
53041;BME280;39326;42.650;23.248;2023-07-29T11:23:02;92423.50;;;32.21;24.73
53041;BME280;39326;42.650;23.248;2023-07-29T11:25:29;92420.56;;;32.13;24.39
53041;BME280;39326;42.650;23.248;2023-07-29T11:27:57;92426.84;;;32.14;24.41
53041;BME280;39326;42.650;23.248;2023-07-29T11:30:23;92422.53;;;31.99;24.48
53041;BME280;39326;42.650;23.248;2023-07-29T11:32:53;92415.72;;;32.00;25.40
53041;BME280;39326;42.650;23.248;2023-07-29T11:35:19;92417.13;;;32.07;25.08
53041;BME280;39326;42.650;23.248;2023-07-29T11:37:49;92414.84;;;32.43;24.38
53041;BME280;39326;42.650;23.248;2023-07-29T11:40:19;92401.75;;;32.44;23.70
53041;BME280;39326;42.650;23.248;2023-07-29T11:42:46;92402.16;;;32.67;23.24
53041;BME280;39326;42.650;23.248;2023-07-29T11:45:13;92406.84;;;32.72;23.40
53041;BME280;39326;42.650;23.248;2023-07-29T11:47:39;92399.75;;;33.03;23.40
53041;BME280;39326;42.650;23.248;2023-07-29T11:50:06;92402.38;;;33.08;23.51
53041;BME280;39326;42.650;23.248;2023-07-29T11:52:40;92398.22;;;33.02;23.69
53041;BME280;39326;42.650;23.248;2023-07-29T11:55:06;92395.50;;;33.28;23.45
53041;BME280;39326;42.650;23.248;2023-07-29T11:57:37;92389.09;;;32.94;22.37
53041;BME280;39326;42.650;23.248;2023-07-29T12:00:04;92395.56;;;32.70;23.13
53041;BME280;39326;42.650;23.248;2023-07-29T12:02:32;92399.72;;;32.90;23.74
53041;BME280;39326;42.650;23.248;2023-07-29T12:04:58;92393.88;;;33.06;22.92
53041;BME280;39326;42.650;23.248;2023-07-29T12:07:23;92387.50;;;33.25;22.14
53041;BME280;39326;42.650;23.248;2023-07-29T12:09:50;92377.94;;;32.99;22.01
53041;BME280;39326;42.650;23.248;2023-07-29T12:12:15;92374.31;;;33.31;21.63
53041;BME280;39326;42.650;23.248;2023-07-29T12:14:47;92371.19;;;33.48;21.59
53041;BME280;39326;42.650;23.248;2023-07-29T12:17:13;92373.84;;;33.67;21.59
53041;BME280;39326;42.650;23.248;2023-07-29T12:19:39;92374.66;;;33.75;22.02
53041;BME280;39326;42.650;23.248;2023-07-29T12:22:07;92374.53;;;33.80;22.04
53041;BME280;39326;42.650;23.248;2023-07-29T12:24:34;92374.28;;;33.92;21.89
53041;BME280;39326;42.650;23.248;2023-07-29T12:27:00;92372.63;;;34.09;21.03
53041;BME280;39326;42.650;23.248;2023-07-29T12:29:26;92364.03;;;34.00;21.36
53041;BME280;39326;42.650;23.248;2023-07-29T12:32:00;92369.19;;;34.17;20.87
53041;BME280;39326;42.650;23.248;2023-07-29T12:34:27;92363.66;;;33.82;22.25
53041;BME280;39326;42.650;23.248;2023-07-29T12:36:57;92367.56;;;33.53;21.52
53041;BME280;39326;42.650;23.248;2023-07-29T12:41:50;92372.78;;;33.56;21.67
53041;BME280;39326;42.650;23.248;2023-07-29T12:44:16;92365.63;;;33.61;21.89
53041;BME280;39326;42.650;23.248;2023-07-29T12:46:42;92369.19;;;33.82;21.90
53041;BME280;39326;42.650;23.248;2023-07-29T12:49:07;92366.78;;;33.79;21.12
53041;BME280;39326;42.650;23.248;2023-07-29T12:51:33;92367.53;;;33.79;22.09
53041;BME280;39326;42.650;23.248;2023-07-29T12:53:59;92364.75;;;34.00;21.13
53041;BME280;39326;42.650;23.248;2023-07-29T12:56:24;92368.41;;;33.95;20.14
53041;BME280;39326;42.650;23.248;2023-07-29T12:58:50;92368.28;;;34.01;21.21
53041;BME280;39326;42.650;23.248;2023-07-29T13:01:15;92371.84;;;34.22;20.71
53041;BME280;39326;42.650;23.248;2023-07-29T13:03:44;92369.38;;;33.98;21.08